Time;durP1;ratioP1;P1;durP2;ratioP2;P2;SDS_P1;SDS_P2;PMS_P1;PMS_P2;Temp;Humidity;BMP_temperature;BMP_pressure;BME280_temperature;BME280_humidity;BME280_pressure;Samples;Min_cycle;Max_cycle;Signal;HPM_P1;HPM_P2
2022/04/03 00:01:06;;;;;;;39.70;20.50;;;;;;;-0.63;88.63;97630.77;105894;1277;25250;-70
2022/04/03 00:03:47;;;;;;;41.80;22.40;;;;;;;-0.67;88.28;97634.41;105727;1277;24281;-70
2022/04/03 00:06:28;;;;;;;40.50;22.30;;;;;;;-0.70;88.25;97637.74;105714;1277;138780;-70
2022/04/03 00:08:56;;;;;;;46.10;22.00;;;;;;;-0.74;88.15;97633.64;105771;1276;24379;-71
2022/04/03 00:11:25;;;;;;;39.10;18.90;;;;;;;-0.79;87.88;97632.77;105604;1277;138082;-72
2022/04/03 00:13:52;;;;;;;34.00;17.10;;;;;;;-0.86;87.69;97633.05;105673;1277;25254;-70
2022/04/03 00:16:33;;;;;;;31.10;18.10;;;;;;;-0.93;87.31;97631.14;105901;1277;138604;-71
2022/04/03 00:19:00;;;;;;;29.20;15.90;;;;;;;-1.02;86.71;97632.74;105879;1277;22553;-70
2022/04/03 00:21:41;;;;;;;28.40;14.90;;;;;;;-1.09;85.70;97634.56;105822;1277;23252;-70
2022/04/03 00:24:28;;;;;;;33.40;14.30;;;;;;;-1.16;84.97;97632.20;105747;1277;137665;-68
2022/04/03 00:27:09;;;;;;;20.60;10.00;;;;;;;-1.22;84.71;97630.91;105956;1277;24310;-69
2022/04/03 00:29:50;;;;;;;23.10;13.20;;;;;;;-1.27;84.86;97633.08;105912;1277;138400;-69
2022/04/03 00:32:31;;;;;;;22.70;11.20;;;;;;;-1.31;84.42;97631.73;105915;1277;22702;-69
2022/04/03 00:35:13;;;;;;;21.40;12.00;;;;;;;-1.34;84.24;97632.27;106040;1277;137731;-69
2022/04/03 00:37:54;;;;;;;20.00;11.20;;;;;;;-1.39;83.99;97631.11;105710;1278;22731;-69
2022/04/03 00:40:35;;;;;;;17.20;9.00;;;;;;;-1.44;83.56;97637.91;105713;1277;138150;-69
2022/04/03 00:43:02;;;;;;;19.40;10.90;;;;;;;-1.48;83.72;97638.58;105907;1277;22557;-69
2022/04/03 00:45:29;;;;;;;20.50;9.80;;;;;;;-1.49;83.42;97638.06;105769;1278;22493;-69
2022/04/03 00:47:56;;;;;;;20.50;9.70;;;;;;;-1.51;83.29;97638.50;105639;1277;138060;-69
2022/04/03 00:50:38;;;;;;;20.90;9.40;;;;;;;-1.55;83.06;97639.60;105816;1277;25370;-69
2022/04/03 00:53:20;;;;;;;20.50;9.00;;;;;;;-1.60;82.89;97632.60;105587;1277;137836;-69
2022/04/03 00:55:47;;;;;;;25.10;9.70;;;;;;;-1.64;82.55;97631.02;106070;1277;24063;-69
2022/04/03 00:58:28;;;;;;;22.50;8.90;;;;;;;-1.68;82.62;97633.21;105754;1277;138415;-69
2022/04/03 01:01:09;;;;;;;21.60;9.50;;;;;;;-1.73;82.44;97634.14;105681;1279;22717;-69
2022/04/03 01:03:36;;;;;;;18.30;8.80;;;;;;;-1.76;82.35;97638.98;105959;1277;23175;-69
2022/04/03 01:06:03;;;;;;;15.80;7.30;;;;;;;-1.79;82.52;97643.09;105711;1279;138243;-69
2022/04/03 01:08:34;;;;;;;14.50;7.50;;;;;;;-1.81;82.34;97640.29;105978;1277;24066;-69
2022/04/03 01:11:02;;;;;;;13.90;7.90;;;;;;;-1.83;82.35;97641.31;105821;1277;137637;-70
2022/04/03 01:13:29;;;;;;;14.50;7.80;;;;;;;-1.87;82.63;97641.96;105970;1277;24296;-70
2022/04/03 01:16:04;;;;;;;12.90;6.70;;;;;;;-1.90;82.65;97640.86;105903;1277;24263;-70
2022/04/03 01:18:45;;;;;;;16.10;7.00;;;;;;;-1.91;82.65;97639.25;105812;1277;137960;-70
2022/04/03 01:21:13;;;;;;;14.10;6.80;;;;;;;-1.94;82.72;97635.80;105617;1277;22538;-69
2022/04/03 01:23:55;;;;;;;15.60;7.40;;;;;;;-1.98;82.55;97636.34;105455;1278;137872;-69
2022/04/03 01:26:36;;;;;;;16.90;7.40;;;;;;;-2.02;82.74;97637.51;105610;1277;24401;-69
2022/04/03 01:29:17;;;;;;;11.70;6.40;;;;;;;-2.04;82.67;97636.58;105691;1277;138556;-69
2022/04/03 01:31:46;;;;;;;13.30;6.90;;;;;;;-2.07;82.44;97640.88;105927;1277;23480;-69
2022/04/03 01:34:27;;;;;;;12.10;6.80;;;;;;;-2.11;82.81;97641.25;105778;1277;137621;-69
2022/04/03 01:36:54;;;;;;;8.70;5.80;;;;;;;-2.14;82.66;97640.55;105786;1277;22532;-69
2022/04/03 01:39:21;;;;;;;13.70;10.60;;;;;;;-2.16;82.67;97640.69;105970;1277;24204;-69
2022/04/03 01:41:48;;;;;;;11.10;5.80;;;;;;;-2.17;82.79;97640.55;105888;1277;138967;-69
2022/04/03 01:44:15;;;;;;;11.80;5.60;;;;;;;-2.17;82.66;97646.30;105919;1277;24418;-69
2022/04/03 01:46:43;;;;;;;10.30;6.20;;;;;;;-2.20;82.71;97643.39;106023;1277;137854;-69
2022/04/03 01:49:11;;;;;;;8.40;6.00;;;;;;;-2.22;82.57;97650.29;105943;1277;24369;-69
2022/04/03 01:51:38;;;;;;;9.50;5.80;;;;;;;-2.24;82.47;97649.96;105848;1277;22556;-69
2022/04/03 01:54:06;;;;;;;11.30;5.90;;;;;;;-2.25;82.91;97653.85;105779;1277;138208;-69
2022/04/03 01:56:34;;;;;;;10.40;5.30;;;;;;;-2.25;82.35;97652.57;106014;1277;22549;-69
2022/04/03 01:59:02;;;;;;;;;;;;;;;-2.27;82.40;97653.70;106162;1277;137711;-69
2022/04/03 02:01:34;;;;;;;10.80;5.50;;;;;;;-2.29;82.68;97657.58;105990;1277;23933;-69
2022/04/03 02:04:03;;;;;;;10.80;6.50;;;;;;;-2.33;82.67;97656.26;105854;1277;22635;-69
2022/04/03 02:06:31;;;;;;;15.00;6.00;;;;;;;-2.36;82.52;97659.31;105843;1277;139103;-69
2022/04/03 02:09:01;;;;;;;13.90;4.70;;;;;;;-2.36;82.66;97660.66;106030;1277;24239;-69
2022/04/03 02:11:29;;;;;;;10.50;5.30;;;;;;;-2.40;82.50;97658.55;105739;1277;137710;-69
2022/04/03 02:14:09;;;;;;;10.30;5.00;;;;;;;-2.43;82.70;97661.25;105847;1277;22701;-69
2022/04/03 02:16:36;;;;;;;13.90;5.60;;;;;;;-2.45;82.91;97668.45;105683;1278;138960;-69
2022/04/03 02:19:04;;;;;;;11.40;6.30;;;;;;;-2.46;82.78;97667.36;105847;1279;22666;-69
2022/04/03 02:21:30;;;;;;;11.00;5.30;;;;;;;-2.48;83.09;97668.73;105915;1277;22573;-70
2022/04/03 02:24:00;;;;;;;13.10;6.10;;;;;;;-2.50;82.93;97667.42;105743;1277;137605;-69
2022/04/03 02:26:27;;;;;;;9.50;5.60;;;;;;;-2.53;83.04;97668.79;105919;1277;24265;-69
2022/04/03 02:29:08;;;;;;;7.50;5.10;;;;;;;-2.55;82.86;97672.73;105767;1277;138269;-69
2022/04/03 02:31:36;;;;;;;10.60;5.70;;;;;;;-2.54;83.17;97672.49;106027;1279;22550;-69
2022/04/03 02:34:07;;;;;;;7.20;4.20;;;;;;;-2.55;82.96;97670.70;106050;1277;22790;-69
2022/04/03 02:36:34;;;;;;;12.70;5.20;;;;;;;-2.57;83.03;97670.34;105789;1278;137767;-69
2022/04/03 02:39:03;;;;;;;9.70;5.40;;;;;;;-2.58;82.91;97676.90;105789;1278;24283;-69
2022/04/03 02:41:30;;;;;;;6.70;4.00;;;;;;;-2.58;83.03;97674.23;106788;1277;138060;-69
2022/04/03 02:44:11;;;;;;;9.30;5.40;;;;;;;-2.58;82.82;97682.20;105955;1276;23339;-69
2022/04/03 02:46:38;;;;;;;7.00;4.50;;;;;;;-2.59;82.92;97682.83;105819;1276;137868;-69
2022/04/03 02:49:05;;;;;;;17.00;6.00;;;;;;;-2.60;82.75;97684.61;105892;1276;22560;-70
2022/04/03 02:51:32;;;;;;;12.10;5.30;;;;;;;-2.61;82.78;97690.22;105951;1277;22555;-70
2022/04/03 02:54:13;;;;;;;10.70;5.40;;;;;;;-2.62;82.60;97689.23;106015;1277;139778;-70
2022/04/03 02:56:54;;;;;;;7.20;4.00;;;;;;;-2.64;82.62;97691.77;105969;1277;25352;-70
2022/04/03 02:59:34;;;;;;;10.60;4.10;;;;;;;-2.66;82.47;97689.52;105947;1277;137676;-69
2022/04/03 03:02:01;;;;;;;8.00;4.90;;;;;;;-2.66;82.50;97698.47;105969;1277;24230;-69
2022/04/03 03:04:29;;;;;;;8.30;5.10;;;;;;;-2.66;82.69;97695.80;105812;1277;138047;-69
2022/04/03 03:07:09;;;;;;;11.00;4.70;;;;;;;-2.68;82.19;97705.86;105847;1279;22550;-69
2022/04/03 03:09:36;;;;;;;10.30;5.80;;;;;;;-2.70;82.33;97714.69;105892;1277;24254;-69
2022/04/03 03:12:05;;;;;;;6.60;4.70;;;;;;;-2.71;82.20;97714.98;105738;1276;138616;-70
2022/04/03 03:14:34;;;;;;;9.80;4.70;;;;;;;-2.72;82.07;97713.66;105948;1277;22556;-70
2022/04/03 03:17:15;;;;;;;12.10;5.20;;;;;;;-2.74;81.94;97717.23;105888;1277;138084;-70
2022/04/03 03:19:56;;;;;;;11.60;5.70;;;;;;;-2.77;82.23;97717.30;106010;1277;22569;-69
2022/04/03 03:22:23;;;;;;;8.80;5.80;;;;;;;-2.79;82.10;97714.92;105756;1277;138906;-70
2022/04/03 03:25:06;;;;;;;12.30;5.70;;;;;;;-2.80;82.04;97718.68;105713;1279;22632;-70
2022/04/03 03:27:48;;;;;;;11.90;6.20;;;;;;;-2.82;82.06;97725.73;105838;1279;22700;-70
2022/04/03 03:30:29;;;;;;;8.80;5.50;;;;;;;-2.86;81.95;97725.75;105743;1278;137871;-70
2022/04/03 03:32:56;;;;;;;12.40;5.80;;;;;;;-2.88;81.76;97733.26;106017;1277;25313;-70
2022/04/03 03:35:37;;;;;;;13.40;6.40;;;;;;;-2.89;81.80;97729.55;105608;1277;137988;-69
2022/04/03 03:38:18;;;;;;;9.50;5.30;;;;;;;-2.93;82.19;97731.16;105705;1276;22563;-69
2022/04/03 03:40:47;;;;;;;9.30;5.40;;;;;;;-2.98;81.84;97733.36;105818;1276;138593;-71
2022/04/03 03:43:28;;;;;;;8.00;5.00;;;;;;;-3.03;81.99;97737.16;105968;1277;30896;-70
2022/04/03 03:45:56;;;;;;;7.60;4.80;;;;;;;-3.07;81.78;97742.04;106012;1277;22540;-70
2022/04/03 03:48:23;;;;;;;12.10;6.20;;;;;;;-3.10;81.97;97740.10;105961;1277;137310;-69
2022/04/03 03:50:51;;;;;;;9.30;5.40;;;;;;;-3.14;81.97;97742.85;106124;1276;22547;-70
2022/04/03 03:53:20;;;;;;;9.80;5.10;;;;;;;-3.17;82.10;97749.10;105982;1277;137864;-69
2022/04/03 03:55:47;;;;;;;9.40;5.30;;;;;;;-3.20;82.00;97752.11;106057;1277;24257;-70
2022/04/03 03:58:27;;;;;;;9.90;5.50;;;;;;;-3.26;82.03;97749.13;105722;1277;137873;-70
2022/04/03 04:00:55;;;;;;;6.30;4.50;;;;;;;-3.29;82.26;97752.02;105760;1280;22541;-70
2022/04/03 04:03:21;;;;;;;8.40;4.60;;;;;;;-3.32;82.53;97757.80;106023;1277;22537;-71
2022/04/03 04:05:49;;;;;;;9.90;5.40;;;;;;;-3.34;82.60;97761.09;105677;1277;138235;-69
2022/04/03 04:08:16;;;;;;;11.40;6.60;;;;;;;-3.37;82.62;97763.20;105918;1276;25315;-69
2022/04/03 04:10:58;;;;;;;9.50;5.50;;;;;;;-3.41;82.48;97767.95;105783;1276;137848;-69
2022/04/03 04:13:38;;;;;;;10.70;5.40;;;;;;;-3.44;82.49;97770.55;105936;1277;22538;-69
2022/04/03 04:16:06;;;;;;;14.30;6.00;;;;;;;-3.46;82.58;97774.30;105882;1277;22779;-69
2022/04/03 04:18:32;;;;;;;10.20;4.50;;;;;;;-3.48;82.50;97775.02;105699;1277;137945;-68
2022/04/03 04:21:15;;;;;;;8.20;4.70;;;;;;;-3.49;82.88;97779.87;105828;1277;25346;-69
2022/04/03 04:23:42;;;;;;;10.50;4.90;;;;;;;-3.51;82.74;97781.64;105758;1277;137640;-69
2022/04/03 04:26:09;;;;;;;10.30;5.40;;;;;;;-3.51;83.06;97785.02;106065;1277;23896;-69
2022/04/03 04:28:51;;;;;;;7.10;4.50;;;;;;;-3.50;82.54;97784.35;105735;1280;138279;-69
2022/04/03 04:31:19;;;;;;;8.50;5.20;;;;;;;-3.51;82.93;97790.31;105892;1277;22619;-68
2022/04/03 04:34:00;;;;;;;10.90;6.30;;;;;;;-3.51;83.08;97795.34;105771;1280;22570;-68
2022/04/03 04:36:27;;;;;;;10.60;5.30;;;;;;;-3.49;82.62;97797.53;105831;1277;139136;-68
2022/04/03 04:38:54;;;;;;;11.80;5.60;;;;;;;-3.46;82.95;97801.08;106128;1277;22566;-68
2022/04/03 04:41:21;;;;;;;13.30;5.20;;;;;;;-3.43;83.08;97806.98;105845;1276;138077;-68
2022/04/03 04:44:02;;;;;;;13.20;5.90;;;;;;;-3.41;82.85;97809.10;105840;1277;22631;-68
2022/04/03 04:46:43;;;;;;;10.80;5.00;;;;;;;-3.38;82.89;97811.39;105700;1277;138296;-68
2022/04/03 04:49:25;;;;;;;7.50;4.50;;;;;;;-3.35;82.91;97810.59;105920;1277;22560;-68
2022/04/03 04:52:06;;;;;;;9.90;5.10;;;;;;;-3.33;82.80;97814.73;105899;1277;25302;-68
2022/04/03 04:54:47;;;;;;;9.50;6.40;;;;;;;-3.32;82.39;97817.86;105975;1277;137374;-68
2022/04/03 04:57:28;;;;;;;8.20;4.60;;;;;;;-3.31;82.46;97819.09;105796;1277;26526;-68
2022/04/03 04:59:55;;;;;;;9.40;5.10;;;;;;;-3.29;82.05;97818.52;105684;1277;137752;-68
2022/04/03 05:02:36;;;;;;;11.00;5.40;;;;;;;-3.28;82.06;97824.08;105849;1277;22557;-68
2022/04/03 05:05:19;;;;;;;10.40;5.80;;;;;;;-3.29;82.04;97827.21;105662;1277;137524;-68
2022/04/03 05:07:48;;;;;;;;;;;;;;;-3.26;82.11;97828.31;105971;1277;25340;-68
2022/04/03 05:10:30;;;;;;;10.20;4.70;;;;;;;-3.23;81.61;97829.64;105760;1277;124842;-69
2022/04/03 05:13:12;;;;;;;10.50;5.40;;;;;;;-3.21;81.80;97836.19;105838;1277;25321;-69
2022/04/03 05:15:54;;;;;;;8.60;4.00;;;;;;;-3.20;81.49;97836.09;105737;1277;25471;-69
2022/04/03 05:18:35;;;;;;;10.40;5.30;;;;;;;-3.21;81.69;97839.23;105657;1277;137696;-69
2022/04/03 05:21:07;;;;;;;9.70;3.90;;;;;;;-3.19;81.64;97850.00;105768;1277;22556;-70
2022/04/03 05:23:49;;;;;;;8.60;5.10;;;;;;;-3.19;81.06;97848.94;105699;1277;137567;-68
2022/04/03 05:26:30;;;;;;;9.00;4.20;;;;;;;-3.20;81.26;97858.95;105799;1277;22538;-68
2022/04/03 05:29:10;;;;;;;10.00;5.20;;;;;;;-3.21;81.02;97864.71;105759;1277;137853;-67
2022/04/03 05:31:51;;;;;;;10.10;4.50;;;;;;;-3.19;81.12;97868.58;105875;1277;22562;-68
2022/04/03 05:34:32;;;;;;;9.70;5.10;;;;;;;-3.17;80.91;97871.78;105782;1277;138003;-69
2022/04/03 05:37:14;;;;;;;10.60;4.90;;;;;;;-3.16;80.78;97877.48;105847;1277;22629;-68
2022/04/03 05:39:41;;;;;;;9.70;5.30;;;;;;;-3.16;80.79;97878.66;105735;1277;25247;-68
2022/04/03 05:42:22;;;;;;;7.50;3.80;;;;;;;-3.14;80.56;97882.55;105996;1277;137821;-68
2022/04/03 05:44:50;;;;;;;9.30;4.70;;;;;;;-3.13;80.10;97883.89;106327;1277;23914;-69
2022/04/03 05:47:33;;;;;;;8.60;4.10;;;;;;;-3.13;80.31;97886.85;105936;1277;137249;-68
2022/04/03 05:50:00;;;;;;;14.60;4.80;;;;;;;-3.13;79.98;97889.71;106239;1277;25334;-69
2022/04/03 05:52:27;;;;;;;12.40;4.40;;;;;;;-3.12;80.18;97894.20;105803;1277;138158;-69
2022/04/03 05:54:54;;;;;;;7.70;4.50;;;;;;;-3.09;80.07;97896.20;105852;1277;23187;-68
2022/04/03 05:57:21;;;;;;;8.90;4.20;;;;;;;-3.04;80.06;97902.20;105861;1277;24232;-68
2022/04/03 05:59:48;;;;;;;9.50;5.10;;;;;;;-3.01;79.56;97905.85;106159;1277;138089;-69
2022/04/03 06:02:30;;;;;;;8.40;5.20;;;;;;;-2.99;79.65;97907.01;105963;1277;25375;-68
2022/04/03 06:04:57;;;;;;;11.30;5.10;;;;;;;-2.95;79.22;97909.92;105776;1277;138255;-68
2022/04/03 06:07:37;;;;;;;9.60;4.80;;;;;;;-2.90;79.28;97910.89;105864;1277;24414;-69
2022/04/03 06:10:05;;;;;;;12.50;5.20;;;;;;;-2.84;79.13;97915.07;105886;1276;22525;-70
2022/04/03 06:12:32;;;;;;;10.80;5.20;;;;;;;-2.77;79.07;97913.05;105766;1277;137498;-69
2022/04/03 06:14:59;;;;;;;8.90;5.20;;;;;;;-2.69;78.74;97919.90;105757;1277;22556;-69
2022/04/03 06:17:26;;;;;;;14.20;5.20;;;;;;;-2.62;78.62;97923.39;105733;1277;137980;-68
2022/04/03 06:19:53;;;;;;;12.90;5.60;;;;;;;-2.53;78.46;97929.52;105959;1277;24256;-68
2022/04/03 06:22:21;;;;;;;12.70;5.30;;;;;;;-2.46;78.26;97925.92;105817;1279;22728;-68
2022/04/03 06:24:47;;;;;;;12.80;5.00;;;;;;;-2.39;77.89;97934.20;105787;1277;137657;-69
2022/04/03 06:27:28;;;;;;;11.20;6.20;;;;;;;-2.36;77.33;97938.23;106244;1277;23121;-70
2022/04/03 06:29:55;;;;;;;11.20;5.60;;;;;;;-2.31;77.65;97939.48;105869;1277;137824;-69
2022/04/03 06:32:22;;;;;;;11.00;6.40;;;;;;;-2.24;77.69;97940.95;106015;1277;22650;-69
2022/04/03 06:35:04;;;;;;;12.40;5.50;;;;;;;-2.19;77.02;97946.26;105670;1277;137685;-69
2022/04/03 06:37:46;;;;;;;10.90;5.10;;;;;;;-2.17;76.56;97948.34;105808;1277;22555;-69
2022/04/03 06:40:13;;;;;;;13.60;5.20;;;;;;;-2.15;76.35;97945.50;105857;1279;26685;-69
2022/04/03 06:42:55;;;;;;;9.90;5.30;;;;;;;-2.13;75.86;97950.59;105174;1281;138534;-69
2022/04/03 06:45:24;;;;;;;9.80;5.20;;;;;;;-2.12;75.98;97951.31;105826;1279;24275;-69
2022/04/03 06:47:51;;;;;;;9.80;4.80;;;;;;;-2.09;75.77;97952.27;105716;1280;137700;-71
2022/04/03 06:50:32;;;;;;;10.60;5.50;;;;;;;-2.04;76.07;97951.29;105856;1278;22618;-69
2022/04/03 06:53:13;;;;;;;7.70;5.20;;;;;;;-1.93;76.10;97956.12;106188;1277;138185;-69
2022/04/03 06:55:40;;;;;;;10.70;5.30;;;;;;;-1.85;75.58;97960.80;106129;1277;25235;-69
2022/04/03 06:58:08;;;;;;;8.80;5.40;;;;;;;-1.80;75.25;97964.67;106074;1280;26674;-69
2022/04/03 07:00:40;;;;;;;11.70;5.80;;;;;;;-1.82;74.32;97968.31;105775;1281;137995;-68
2022/04/03 07:03:21;;;;;;;10.20;5.90;;;;;;;-1.78;74.97;97974.42;105839;1279;25253;-69
2022/04/03 07:05:48;;;;;;;12.50;5.60;;;;;;;-1.72;74.32;97980.35;105909;1277;137977;-69
2022/04/03 07:08:16;;;;;;;11.00;5.50;;;;;;;-1.71;73.90;97983.45;105991;1277;25236;-69
2022/04/03 07:10:57;;;;;;;6.50;3.60;;;;;;;-1.67;74.02;97981.59;105927;1277;137673;-69
2022/04/03 07:13:24;;;;;;;8.70;4.80;;;;;;;-1.64;73.78;97986.77;106172;1278;22622;-70
2022/04/03 07:15:51;;;;;;;9.80;4.50;;;;;;;-1.59;73.55;97989.73;105830;1278;22691;-70
2022/04/03 07:18:35;;;;;;;12.70;4.70;;;;;;;-1.56;73.20;97996.85;105503;1280;138375;-68
2022/04/03 07:21:16;;;;;;;11.80;5.80;;;;;;;-1.50;72.98;98002.90;105906;1277;22589;-70
2022/04/03 07:23:43;;;;;;;10.80;5.80;;;;;;;-1.51;72.21;98004.86;106070;1277;137582;-69
2022/04/03 07:26:24;;;;;;;9.50;4.40;;;;;;;-1.51;72.40;98006.42;106437;1278;22582;-68
2022/04/03 07:28:51;;;;;;;11.30;5.30;;;;;;;-1.52;72.64;98012.34;105748;1279;138113;-68
2022/04/03 07:31:18;;;;;;;11.00;5.00;;;;;;;-1.47;72.32;98012.54;105273;1278;828254;-69
2022/04/03 07:33:46;;;;;;;9.90;5.70;;;;;;;-1.43;72.10;98015.77;105518;1279;25530;-69
2022/04/03 07:36:13;;;;;;;13.10;5.30;;;;;;;-1.41;71.73;98020.36;105747;1277;137264;-69
2022/04/03 07:38:42;;;;;;;9.40;5.10;;;;;;;-1.39;71.66;98024.99;106079;1277;25290;-69
2022/04/03 07:41:23;;;;;;;9.80;4.40;;;;;;;-1.41;71.34;98031.41;105964;1277;137366;-69
2022/04/03 07:43:50;;;;;;;9.80;6.00;;;;;;;-1.41;71.68;98034.21;105840;1278;25495;-69
2022/04/03 07:46:17;;;;;;;13.30;5.10;;;;;;;-1.35;71.96;98039.62;105978;1277;24354;-68
2022/04/03 07:48:58;;;;;;;11.50;4.60;;;;;;;-1.29;71.38;98042.84;106010;1277;138035;-68
2022/04/03 07:51:26;;;;;;;8.10;5.00;;;;;;;-1.23;71.64;98041.26;106268;1277;22588;-69
2022/04/03 07:53:54;;;;;;;13.90;6.70;;;;;;;-1.16;72.07;98041.86;106203;1278;137535;-69
2022/04/03 07:56:35;;;;;;;12.20;5.90;;;;;;;-1.07;72.00;98046.27;105982;1278;22521;-69
2022/04/03 07:59:16;;;;;;;10.30;5.20;;;;;;;-0.98;70.93;98048.73;105733;1278;138203;-69
2022/04/03 08:01:43;;;;;;;12.30;5.40;;;;;;;-0.97;69.95;98053.31;105659;1278;25568;-69
2022/04/03 08:04:23;;;;;;;9.60;4.90;;;;;;;-0.95;69.88;98058.68;105682;1279;22828;-69
2022/04/03 08:06:51;;;;;;;11.80;5.00;;;;;;;-0.92;69.78;98063.05;105691;1277;137610;-69
2022/04/03 08:09:17;;;;;;;8.20;4.70;;;;;;;-0.90;68.82;98061.73;105802;1278;24612;-68
2022/04/03 08:11:45;;;;;;;9.40;4.70;;;;;;;-0.86;68.58;98067.67;105698;1278;137349;-69
2022/04/03 08:14:27;;;;;;;6.80;4.40;;;;;;;-0.82;68.13;98070.33;105689;1278;24272;-69
2022/04/03 08:16:55;;;;;;;9.10;4.70;;;;;;;-0.81;67.54;98073.58;105648;1277;137533;-69
2022/04/03 08:19:22;;;;;;;6.80;4.60;;;;;;;-0.79;67.69;98076.46;105708;1277;22567;-70
2022/04/03 08:22:03;;;;;;;11.80;5.20;;;;;;;-0.75;66.38;98077.66;105742;1279;22738;-69
2022/04/03 08:24:44;;;;;;;7.10;3.50;;;;;;;-0.65;67.30;98077.90;107080;1277;137651;-69
2022/04/03 08:27:24;;;;;;;7.20;3.90;;;;;;;-0.59;66.50;98081.04;106760;1277;25471;-74
2022/04/03 08:29:52;;;;;;;9.20;4.10;;;;;;;-0.48;67.17;98086.24;106408;1277;137737;-70
2022/04/03 08:32:19;;;;;;;8.90;4.50;;;;;;;-0.37;67.17;98091.11;106320;1277;22559;-70
2022/04/03 08:34:59;;;;;;;7.10;4.10;;;;;;;-0.26;64.56;98085.95;106215;1278;137409;-69
2022/04/03 08:37:29;;;;;;;7.90;4.40;;;;;;;-0.22;64.97;98088.52;106577;1277;22595;-69
2022/04/03 08:40:11;;;;;;;10.90;4.70;;;;;;;-0.13;64.42;98092.58;107106;1277;22551;-70
2022/04/03 08:42:39;;;;;;;5.40;3.60;;;;;;;-0.06;64.39;98087.73;106640;1277;137881;-70
2022/04/03 08:45:21;;;;;;;6.70;4.00;;;;;;;0.08;64.50;98093.27;106310;1277;22529;-69
2022/04/03 08:47:51;;;;;;;8.00;3.00;;;;;;;0.24;63.69;98094.48;106375;1277;137102;-70
2022/04/03 08:50:38;;;;;;;7.60;3.60;;;;;;;0.31;61.33;98096.16;106022;1277;22531;-69
2022/04/03 08:53:08;;;;;;;7.50;3.70;;;;;;;0.34;61.38;98100.18;106464;1277;137663;-70
2022/04/03 08:55:49;;;;;;;6.00;3.20;;;;;;;0.37;60.81;98099.09;106185;1277;23080;-71
2022/04/03 08:58:17;;;;;;;8.60;3.50;;;;;;;0.42;60.21;98099.77;106666;1277;24004;-70
2022/04/03 09:00:44;;;;;;;6.60;3.80;;;;;;;0.46;61.64;98105.21;106193;1278;137214;-71
2022/04/03 09:03:14;;;;;;;8.10;4.00;;;;;;;0.52;61.40;98104.98;106130;1279;23919;-69
2022/04/03 09:06:12;;;;;;;7.30;4.20;;;;;;;0.62;62.74;98105.58;106287;1278;137203;-70
2022/04/03 09:08:53;;;;;;;6.10;3.20;;;;;;;0.71;60.08;98119.37;105821;1278;24296;-69
2022/04/03 09:11:33;;;;;;;6.60;4.10;;;;;;;0.73;59.05;98116.50;105719;1277;137564;-69
2022/04/03 09:14:15;;;;;;;6.50;3.60;;;;;;;0.77;59.08;98116.71;105817;1279;25427;-69
2022/04/03 09:16:42;;;;;;;5.60;3.30;;;;;;;0.80;59.40;98117.93;105622;1277;137340;-69
2022/04/03 09:19:35;;;;;;;5.10;3.00;;;;;;;0.79;59.16;98124.72;105996;1277;22812;-69
2022/04/03 09:22:03;;;;;;;6.20;3.70;;;;;;;0.70;57.94;98124.72;105787;1277;24076;-69
2022/04/03 09:24:47;;;;;;;4.80;3.10;;;;;;;0.63;57.74;98129.55;105502;1277;137785;-67
2022/04/03 09:27:15;;;;;;;7.70;3.60;;;;;;;0.55;58.76;98129.82;106156;1278;23171;-70
2022/04/03 09:29:45;;;;;;;6.70;3.90;;;;;;;0.51;58.87;98133.99;105965;1277;137280;-69
2022/04/03 09:32:15;;;;;;;7.50;3.70;;;;;;;0.53;59.11;98132.00;106038;1277;25345;-71
2022/04/03 09:34:57;;;;;;;7.70;4.20;;;;;;;0.62;59.27;98135.22;105937;1277;137302;-69
2022/04/03 09:37:26;;;;;;;7.30;3.80;;;;;;;0.74;60.48;98138.48;105912;1277;25464;-70
2022/04/03 09:40:07;;;;;;;7.40;3.70;;;;;;;0.87;60.02;98145.02;105876;1277;22559;-69
2022/04/03 09:42:34;;;;;;;6.80;3.70;;;;;;;0.93;58.74;98143.96;105875;1277;137283;-69
2022/04/03 09:45:25;;;;;;;7.00;3.80;;;;;;;0.99;58.60;98155.11;105949;1277;22541;-69
2022/04/03 09:47:52;;;;;;;6.20;3.20;;;;;;;1.06;57.77;98149.70;105494;1277;137098;-69
2022/04/03 09:50:19;;;;;;;8.50;4.30;;;;;;;1.07;57.48;98152.06;105660;1278;22549;-69
2022/04/03 09:53:00;;;;;;;6.00;3.30;;;;;;;1.10;57.84;98155.64;105497;1281;137748;-69
2022/04/03 09:55:29;;;;;;;6.30;3.50;;;;;;;1.11;58.15;98148.02;105968;1277;24335;-69
2022/04/03 09:58:12;;;;;;;7.10;4.30;;;;;;;1.18;59.91;98155.38;105980;1277;22558;-69
2022/04/03 10:00:41;;;;;;;6.30;3.50;;;;;;;1.25;59.22;98155.11;105863;1278;137115;-69
2022/04/03 10:03:12;;;;;;;5.10;3.40;;;;;;;1.31;59.60;98158.42;105879;1278;24250;-69
2022/04/03 10:05:40;;;;;;;6.70;3.40;;;;;;;1.36;58.49;98161.53;105748;1278;137166;-70
2022/04/03 10:08:21;;;;;;;4.80;3.50;;;;;;;1.42;57.92;98163.14;105866;1280;23957;-69
2022/04/03 10:11:03;;;;;;;7.50;3.80;;;;;;;1.51;59.35;98165.20;105840;1277;137507;-70
2022/04/03 10:13:31;;;;;;;8.80;3.80;;;;;;;1.60;58.39;98169.15;105940;1277;22553;-71
2022/04/03 10:16:14;;;;;;;7.60;4.00;;;;;;;1.63;57.35;98167.68;105884;1277;22626;-69
2022/04/03 10:18:43;;;;;;;8.40;4.30;;;;;;;1.70;59.01;98171.09;105889;1278;137582;-70
2022/04/03 10:21:37;;;;;;;5.00;3.50;;;;;;;1.75;57.41;98172.44;106811;1277;31525;-69
2022/04/03 10:24:06;;;;;;;8.40;4.10;;;;;;;1.74;56.35;98171.11;106365;1277;137253;-70
2022/04/03 10:26:37;;;;;;;8.50;3.70;;;;;;;1.80;57.90;98172.42;106268;1280;24380;-70
2022/04/03 10:29:18;;;;;;;5.50;3.70;;;;;;;1.92;60.25;98173.76;106225;1277;137718;-71
2022/04/03 10:32:00;;;;;;;7.20;3.80;;;;;;;2.11;59.37;98186.94;105997;1280;24291;-70
2022/04/03 10:34:50;;;;;;;5.00;3.60;;;;;;;2.08;56.33;98182.20;105702;1278;137446;-69
2022/04/03 10:37:35;;;;;;;4.10;2.60;;;;;;;2.01;58.70;98178.91;106308;1277;22554;-69
2022/04/03 10:40:17;;;;;;;5.60;3.50;;;;;;;2.10;59.31;98181.22;105983;1281;23921;-69
2022/04/03 10:43:02;;;;;;;5.30;3.60;;;;;;;2.15;57.13;98182.16;105848;1281;137376;-69
2022/04/03 10:45:46;;;;;;;4.90;3.00;;;;;;;2.11;57.35;98179.79;106364;1281;22710;-69
2022/04/03 10:48:30;;;;;;;5.50;3.00;;;;;;;2.08;56.78;98177.86;105882;1279;137303;-69
2022/04/03 10:51:20;;;;;;;6.50;3.50;;;;;;;2.08;57.60;98175.64;106380;1277;23382;-69
2022/04/03 10:53:59;;;;;;;5.80;3.50;;;;;;;2.12;58.24;98180.52;106314;1277;137077;-69
2022/04/03 10:56:29;;;;;;;8.00;4.50;;;;;;;1.95;57.40;98175.02;106373;1277;23929;-70
2022/04/03 10:59:10;;;;;;;5.70;4.00;;;;;;;1.92;59.36;98179.70;106101;1277;137555;-70
2022/04/03 11:01:39;;;;;;;8.20;4.40;;;;;;;1.87;58.77;98184.88;106275;1277;22597;-70
2022/04/03 11:04:11;;;;;;;7.80;4.50;;;;;;;1.78;59.22;98178.48;106163;1277;24086;-69
2022/04/03 11:06:40;;;;;;;6.50;4.10;;;;;;;1.71;59.03;98179.69;106378;1277;137209;-69
2022/04/03 11:09:27;;;;;;;6.70;4.00;;;;;;;1.71;60.02;98185.16;106447;1277;22541;-69
2022/04/03 11:11:57;;;;;;;8.50;4.40;;;;;;;1.69;60.15;98182.84;105749;1277;137178;-69
2022/04/03 11:14:51;;;;;;;8.10;3.90;;;;;;;1.76;61.57;98183.80;106088;1281;22620;-69
2022/04/03 11:17:39;;;;;;;4.90;3.80;;;;;;;1.74;60.56;98184.32;105949;1278;137527;-69
2022/04/03 11:20:37;;;;;;;5.20;4.00;;;;;;;1.70;59.64;98186.95;105769;1278;24096;-69
2022/04/03 11:23:07;;;;;;;7.20;4.40;;;;;;;1.69;59.64;98187.97;105619;1278;137303;-69
2022/04/03 11:25:48;;;;;;;9.60;4.30;;;;;;;1.64;61.04;98187.80;105797;1277;22695;-69
2022/04/03 11:28:17;;;;;;;4.90;4.10;;;;;;;1.64;59.91;98185.23;105892;1277;23137;-69
2022/04/03 11:30:59;;;;;;;6.80;3.30;;;;;;;1.62;59.31;98188.04;106047;1277;136967;-69
2022/04/03 11:33:32;;;;;;;5.30;3.30;;;;;;;1.53;60.50;98190.60;106336;1277;23292;-69
2022/04/03 11:36:08;;;;;;;7.30;4.30;;;;;;;1.43;61.02;98186.77;105896;1277;137999;-69
2022/04/03 11:38:44;;;;;;;7.80;4.50;;;;;;;1.53;63.07;98189.73;106048;1277;24315;-69
2022/04/03 11:41:27;;;;;;;6.20;3.30;;;;;;;1.74;61.21;98190.77;106115;1277;137074;-70
2022/04/03 11:43:57;;;;;;;3.80;3.10;;;;;;;1.88;60.12;98188.23;106119;1277;24312;-69
2022/04/03 11:46:28;;;;;;;5.60;3.20;;;;;;;2.11;58.09;98184.65;106086;1277;25541;-70
2022/04/03 11:49:14;;;;;;;4.40;3.00;;;;;;;2.28;59.13;98182.45;105933;1277;137045;-69
2022/04/03 11:52:10;;;;;;;5.50;3.40;;;;;;;2.47;58.06;98189.81;106023;1277;24111;-69